Aviation Digital Data Service (ADDS)

Output produced by METARs form (2002 UTC 31 January 2023)
found at http://www.aviationweather.gov/metar/data/
 
VTSS 311930Z 26002KT 9999 FEW020 BKN100 24/23 Q1010 NOSIG
VTSS 311900Z 22003KT 9999 FEW020 BKN100 24/23 Q1010 NOSIG
VTSS 311830Z 25002KT 9999 FEW020 BKN100 24/23 Q1010 NOSIG
VTSS 311800Z 00000KT 9999 FEW020 SCT028 BKN100 24/23 Q1011 NOSIG
VTSS 311730Z 00000KT 9999 FEW020 SCT028 BKN100 24/23 Q1011 NOSIG
VTSS 311700Z 00000KT 9999 FEW020 BKN100 24/23 Q1011 NOSIG
VTSS 311630Z 00000KT 9999 FEW020 BKN100 24/23 Q1011 NOSIG
VTSS 311600Z VRB01KT 9999 FEW020 SCT028 BKN100 24/23 Q1011 NOSIG
VTSS 311530Z 00000KT 9999 -RA FEW020 SCT028 BKN100 24/23 Q1011 NOSIG
VTSS 311500Z VRB02KT 9999 FEW020 BKN100 24/23 Q1011 NOSIG
VTSS 311430Z 04003KT 010V080 9999 FEW020 BKN100 25/23 Q1011 NOSIG
VTSS 311400Z 01003KT 330V030 9999 FEW020 BKN100 25/23 Q1011 NOSIG
VTSS 311330Z VRB02KT 9999 FEW020 BKN100 25/23 Q1010 NOSIG
VTSS 311300Z VRB02KT 9999 FEW020 SCT028 BKN100 25/23 Q1010 NOSIG
VTSS 311230Z 10003KT 050V140 9999 FEW020 SCT028 BKN100 26/23 Q1010 NOSIG
VTSS 311200Z 06005KT 9999 SCT020 SCT028 BKN100 26/23 Q1009 NOSIG
VTSS 311130Z 07007KT 9999 SCT020 SCT028 BKN100 26/23 Q1009 NOSIG
VTSS 311100Z 08008KT 9999 SCT020 SCT028 BKN100 27/23 Q1009 NOSIG
VTSS 311030Z 06007KT 9999 SCT020 BKN100 27/22 Q1009 NOSIG
VTSS 311000Z 07010KT 9999 SCT020 BKN100 27/22 Q1009 NOSIG
VTSS 310930Z 07009KT 9999 SCT020 BKN100 27/23 Q1008 NOSIG
VTSS 310900Z 07011KT 9999 SCT020 BKN100 28/22 Q1008 NOSIG
VTSS 310830Z 07009KT 9999 SCT020 BKN100 28/22 Q1008 NOSIG
VTSS 310800Z 07010KT 9999 FEW020 BKN100 28/23 Q1009 NOSIG
VTSS 310730Z 08011KT 9999 FEW020 SCT028 BKN100 28/22 Q1009 NOSIG
VTSS 310700Z 08012KT 9999 FEW020 SCT028 BKN100 28/22 Q1010 NOSIG
VTSS 310630Z 08012KT 9999 FEW020 BKN100 29/22 Q1010 NOSIG
VTSS 310600Z 08015KT 9999 FEW020 BKN100 29/22 Q1011 NOSIG
VTSS 310530Z 07011KT 050V110 9999 FEW020 BKN100 29/23 Q1011 NOSIG
VTSS 310500Z 08011KT 060V120 9999 FEW020 BKN100 29/23 Q1012 NOSIG
VTSS 310430Z 09009KT 9999 SCT020 BKN100 28/23 Q1012 NOSIG
VTSS 310400Z 10007KT 9999 SCT020 BKN100 28/24 Q1012 NOSIG
VTSS 310330Z 10009KT 070V130 9999 FEW020 BKN100 28/24 Q1012 NOSIG
VTSS 310300Z 09006KT 9999 FEW020 BKN100 27/24 Q1012 NOSIG
VTSS 310230Z 09008KT 9999 FEW020 BKN100 27/24 Q1012 NOSIG
VTSS 310200Z 10006KT 9999 FEW020 BKN100 26/23 Q1012 NOSIG
VTSS 310130Z 10003KT 040V150 9999 FEW020 BKN100 25/24 Q1012 NOSIG
VTSS 310100Z 06003KT 360V120 9999 FEW020 BKN100 24/23 Q1012 NOSIG
VTSS 310030Z 09004KT 9999 FEW020 BKN100 23/23 Q1011 NOSIG
VTSS 310000Z VRB01KT 9999 FEW020 BKN100 23/23 Q1011 NOSIG
VTSS 302330Z VRB01KT 9999 FEW020 BKN100 23/22 Q1010 NOSIG
VTSS 302300Z VRB02KT 9999 FEW020 BKN100 23/22 Q1010 NOSIG
VTSS 302230Z 00000KT 9999 FEW020 BKN100 23/23 Q1010 NOSIG
VTSS 302200Z 26003KT 190V280 9999 FEW020 BKN100 23/23 Q1010 NOSIG
VTSS 302130Z 28004KT 9999 FEW020 BKN100 23/22 Q1010 NOSIG
VTSS 302100Z 28004KT 9999 FEW020 BKN100 23/22 Q1010 NOSIG
VTSS 302030Z 27004KT 9999 FEW020 BKN100 23/22 Q1010 NOSIG
VTSS 302000Z VRB02KT 9999 FEW020 BKN100 22/22 Q1010 NOSIG
VTSS 301930Z VRB02KT 9999 FEW020 BKN100 22/22 Q1010 NOSIG
TAF VTSS 311700Z 3118/0118 30003KT 9999 FEW020 BKN100 
     BECMG 0102/0104 07010KT 
     BECMG 0113/0115 30003KT